EA1FLQ
43.22.00N 005.36.35W
IN73EI aprs.fi
zuletzt gehoert:
2021-04-23T14:04:05Z
zuerst gehoert:
2020-02-10T15:02:02Z

APRS Siero [IN73EI], 0 Stunde(n), EA1FLQ [16:21:58, 0s].
EA1FLQ 43.22.00N 005.36.35WIN73EI 0.202km 270°W14:04:05ZMMDVM DVMega 439.9750/439.9750 CC5
ED1ZAS 43.27.52N 005.40.17WIN73DL 11.557km 332°NNW14:06:27ZRD985 438.2250/430.6250 CC1
ED1ZAE 43.27.99N 005.40.54WIN73DL 12.543km 332°NNW14:12:56Z2m Voice 145.5875 -0.600 Mhz(3ED1ZAE-C)
WIDE3-3 ESAS3-3 IN73DL WWW.EA1URG.ORG(2ED1ZAE-3)
EB1GEM 43.30.00N 005.36.07WIN73EM 14.843km N14:21:39ZWX3in1Plus2.0 U=13.3V,T=??.?C/??.?F(3EB1GEM-3)
EA1GHQ 43.30.67N 005.36.12WIN73EM 16.066km N14:20:09ZTransmission ended(3EA1GHQ-7)
EA1ABW 43.24.77N 005.47.77WIN73CJ 16.409km 288°WNW14:01:38ZMMDVM MMDVM HS Hat 439.8250/439.8250 CC1
LEHU 43.22.63N 005.49.57WIN73CJ 18.046km 274°W14:00:12ZHelipuerto del HUCA: LEAS 231330Z VRB02KT 9999 FEW050 21/11 Q1013 NOSIG=
EA1FHR 43.28.72N 005.26.41WIN73GL 18.128km 47°NE14:03:08ZMMDVM MMDVM HS Hat 439.1500/439.1500 CC1
EA1DZR 43.31.47N 005.40.00WIN73DM 18.277km 344°NNW14:05:53ZMMDVM DVMega 431.1000/431.1000 CC1
EA1FFA 43.31.53N 005.40.64WIN73DM 18.655km 341°NNW14:02:54ZMMDVM MMDVM HS Hat 438.8000/438.8000 CC1
LEMR 43.25.83N 005.49.60WIN73CK 19.387km 292°WNW14:00:15ZAerodromo de la Morgal: LEAS 231330Z VRB02KT 9999 FEW050 21/11 Q1013 NOSIG=
LEGM 43.26.15N 005.49.84WIN73CK 19.903km 293°WNW14:00:13ZHelipuerto de La Morgal: LEAS 231330Z VRB02KT 9999 FEW050 21/11 Q1013 NOSIG=
33D00 43.21.63N 005.51.13WIN73BI 20.111km 268°W14:01:58Z33-D-00 Protección Civil REMER / Delegación del Gobierno en Asturias
EA1IMW 43.14.36N 005.46.93WIN73CF 20.233km 226°SW14:05:33ZGRUPO RADIO GALENA (GRG) 433.4500/433.4500 CC1
EA1L 43.20.38N 005.51.13WIN73BI 20.336km 262°W14:13:01ZWind 000°/000kn, Böen bis 000kn, Temp 0.00c, Regen 0.0mm, letzte 24h 0.0mm, seit 0h 0.0mm, Baro 0000.0h, Hum: 0%(3EA1L-13)
ea1l@ure.es V=11.7V,T=??.?C(2EA1L)
EB1TK 43.32.22N 005.42.32WIN73DM 20.661km 337°NNW14:15:16ZWind 011°/003kn, Böen bis 008kn, Temp 17.78c, Regen 0.0mm, letzte 24h 0.0mm, seit 0h 0.0mm, Baro 1016.4h, Hum: 66%(3EB1TK-13)
EA1YR 43.22.09N 005.51.86WIN73BI 21.095km 271°W14:05:49ZMMDVM DVS 434.3500/434.3500 CC1
EA1HJA 43.21.47N 005.52.09WIN73BI 21.428km 268°W14:20:29Z IN73FL WX3IN1+ 2.0 - V=13.3V,TX TEMP=33.1C(3EA1HJA-2)
EA1HJA@URE.ES(2EA1HJA)
EA1JAY 43.21.22N 005.52.14WIN73BI 21.523km 266°W13:59:33ZEA1JAY(3EA1JAY-2)
EA1JAY 438.8000/438.8000 CC1(2EA1JAY)
434.525MHz Nodo TETRA DMO(2EA1JAY-4)
Mario, Oviedo. HamTETRA APRS(2EA1JAY-7)
EB1DGC 43.12.60N 005.45.59WIN73CF 21.536km 216°SW14:01:45ZMMDVM MMDVM HS Hat 433.4500/433.4500 CC1
LEEL 43.32.98N 005.41.71WIN73DN 21.653km 340°NNW14:00:15ZHelipuerto de El Musel: LEAS 231330Z VRB02KT 9999 FEW050 21/11 Q1013 NOSIG=
ED1ZAU 43.23.04N 005.52.75WIN73BJ 22.374km 275°W14:06:34ZRD625 438.5000/430.9000 CC1
EA1JBL 43.12.28N 005.47.42WIN73CE 23.511km 220°SW14:05:19ZMMDVM DVMega 435.3000/435.3000 CC1
EA1HWA 43.12.00N 005.47.40WIN73CE 23.899km 219°SW14:03:55ZMMDVM MMDVM HS Hat 433.4500/433.4500 CC1
ED1ZAD 43.07.90N 005.38.52WIN73ED 26.295km 187°S14:20:09ZED1ZAD-3 APRS Digi/Igate(3ED1ZAD-3)
EA1RCG 43.09.45N 005.49.78WIN73CD 29.592km 218°SW14:06:06ZGRUPO RADIO GALENA (GRG) 433.4500/433.4500 CC1
ED1ZAY 43.29.47N 005.56.54WIN73AL 30.680km 297°WNW14:06:32ZRD625 438.3000/430.7000 CC1
EA1JBU 43.30.80N 005.16.20WIN73IM 31.463km 59°ENE13:45:19ZEA1JBU(3EA1JBU-2)
EA1AHA 43.32.72N 005.54.38WIN73BN 31.506km 309°NW14:21:21ZWind 135°/004kn, Böen bis 004kn, Temp 22.78c, Regen 0.0mm, letzte 24h 0.0mm, seit 0h 0.0mm, Baro 1013.6h, Hum: 38%(3EA1AHA-13)
EA1JBE 43.30.90N 005.16.15WIN73IM 31.628km 58°ENE14:19:52ZEA1JAY 438.8000/438.8000 CC1(3EA1JBE-2)
MAIN QTH http://qrz.com/db/ea1jbe(2EA1JBE-1)
MAIN QTH http://qrz.com/db/ea1jbe(2EA1JBE-13)
EA1IZV 43.33.25N 005.55.92WIN73AN 33.734km 308°NW14:15:03ZEn proceso...
EA1GS 43.23.36N 005.11.20WIN73JJ 33.766km 86°E14:05:19ZMMDVM MMDVM HS Hat 436.1000/436.1000 CC1
EA1DHE 43.33.98N 005.58.57WIN73AN 37.387km 307°NW14:05:49ZMMDVM DVS 434.3500/434.3500 CC1
ED1ZBF 43.19.16N 005.06.74WIN73KH 40.044km 97°E14:06:25ZRD625 438.4750/430.8750 CC1

aprs.pl 5.0.011w DL3EL © 2006-2021 [277540]